Port Imperial Manhattan — WBP3384 — position and weather

sailwx.info

Track history (hours):
 
Tides and Currents Weather Stations Pressure Air Temp Water Temp Dewpoint Dewpoint Depression Visibility Wind Speed Wind Dir Waves Ship Positions

Port Imperial Manhattan

Owner: PORT IMPERIAL FERRY CORP, WEEHAWKEN, NJ. More information available from US FCC via Universal Licensing System and Coast Guard Vessel Documentation Center.

Last reported at 2018-Jun-19 00:04 UTC. Time now 2018-Jun-19 08:28 UTC.
Position N 40°46' W 074°00'.

Length 30 m; draft 2 m.

Type: Passenger vessel. MMSI: 366990540.

Date/timePositionNaut miles runAvg speedWind from/ knotsBaromVisibWave heightAir tempDewpointWater temp
2018-Jun-19 00:04N 40°46' W 074°00'1 7.9
2018-Jun-18 23:59N 40°46' W 074°00'1 1.9
2018-Jun-18 23:30N 40°45' W 074°01'1 0.9
2018-Jun-18 22:54N 40°45' W 074°01'1 1.4
2018-Jun-18 22:30N 40°45' W 074°01'1 1.2
2018-Jun-18 21:55N 40°46' W 074°01'1 1.2
2018-Jun-18 21:28N 40°45' W 074°01'0 0.7
2018-Jun-18 20:53N 40°45' W 074°01'1 1.4
2018-Jun-18 20:30N 40°45' W 074°01'0 0.7
2018-Jun-18 19:47N 40°45' W 074°01'0 0.8
2018-Jun-18 19:28N 40°46' W 074°01'0 1.0
2018-Jun-18 19:00N 40°45' W 074°01'1 1.0
2018-Jun-18 18:21N 40°46' W 074°00'1 0.2
2018-Jun-18 14:16N 40°46' W 074°00'2 5.9
2018-Jun-18 14:00N 40°45' W 074°01'0 0.5
2018-Jun-18 13:24N 40°45' W 074°01'0 0.7
2018-Jun-18 13:00N 40°45' W 074°01'1 1.6
2018-Jun-18 12:29N 40°46' W 074°01'1 1.5
2018-Jun-18 11:58N 40°45' W 074°01'0 0.8
2018-Jun-18 11:25N 40°45' W 074°01'0 1.1
2018-Jun-18 11:01N 40°45' W 074°01'1 1.1
2018-Jun-18 10:25N 40°46' W 074°01'1 1.6
2018-Jun-18 10:00N 40°45' W 074°01'1 0.1
2018-Jun-17 23:35N 40°46' W 074°00'111.5
2018-Jun-17 23:30N 40°46' W 074°01'4 8.9
2018-Jun-17 23:00N 40°41' W 074°01'0 0.0
2018-Jun-17 22:30N 40°41' W 074°01'0 0.0
2018-Jun-17 22:01N 40°41' W 074°01'0 0.0
2018-Jun-17 21:31N 40°41' W 074°01'1 1.4
2018-Jun-17 21:00N 40°42' W 074°00'1 1.3
2018-Jun-17 20:27N 40°41' W 074°01'1 1.6
2018-Jun-17 20:00N 40°42' W 074°00'1 1.5
2018-Jun-17 19:30N 40°41' W 074°01'1 1.5
2018-Jun-17 19:00N 40°42' W 074°00'1 1.4
2018-Jun-17 18:30N 40°41' W 074°01'1 1.4
2018-Jun-17 18:00N 40°42' W 074°00'1 1.4
2018-Jun-17 17:30N 40°41' W 074°01'1 1.5
2018-Jun-17 17:00N 40°42' W 074°00'1 1.3
2018-Jun-17 16:30N 40°41' W 074°01'1 1.3
2018-Jun-17 16:00N 40°42' W 074°00'1 1.4
2018-Jun-17 15:30N 40°41' W 074°01'1 1.5
2018-Jun-17 15:00N 40°42' W 074°00'1 1.3
2018-Jun-17 14:30N 40°42' W 074°01'4 8.9
2018-Jun-17 14:00N 40°46' W 074°00'0 0.7
2018-Jun-17 13:30N 40°46' W 074°01'0 0.0
2018-Jun-16 23:33N 40°46' W 074°00'115.0
2018-Jun-16 23:30N 40°46' W 074°01'5 9.2
2018-Jun-16 23:00N 40°41' W 074°01'0 0.1
2018-Jun-16 22:30N 40°41' W 074°01'0 0.1
2018-Jun-16 22:00N 40°41' W 074°01'0 0.1
2018-Jun-16 21:30N 40°41' W 074°01'1 1.4
2018-Jun-16 21:00N 40°42' W 074°00'1 1.4
2018-Jun-16 20:30N 40°41' W 074°01'1 1.4
2018-Jun-16 20:00N 40°42' W 074°00'1 1.5
2018-Jun-16 19:30N 40°41' W 074°01'1 1.4
2018-Jun-16 19:00N 40°42' W 074°00'1 1.4
2018-Jun-16 18:30N 40°41' W 074°01'1 1.4
2018-Jun-16 18:00N 40°42' W 074°00'1 1.3
2018-Jun-16 17:30N 40°41' W 074°01'1 1.4
2018-Jun-16 17:00N 40°42' W 074°00'1 1.4
2018-Jun-16 16:30N 40°41' W 074°01'1 1.4
2018-Jun-16 16:00N 40°42' W 074°00'1 1.3
2018-Jun-16 15:30N 40°41' W 074°01'1 1.3
2018-Jun-16 15:00N 40°42' W 074°00'1 1.5
2018-Jun-16 14:31N 40°41' W 074°01'2 3.1
2018-Jun-16 14:00N 40°43' W 074°01'4 0.3
2018-Jun-16 00:00N 40°46' W 074°00'1 2.5
2018-Jun-15 23:27N 40°45' W 074°01'1 1.3
2018-Jun-15 22:56N 40°46' W 074°01'1 1.6
2018-Jun-15 22:28N 40°45' W 074°01'1 1.7
2018-Jun-15 21:56N 40°46' W 074°00'1 1.8
2018-Jun-15 21:29N 40°45' W 074°01'1 1.1
2018-Jun-15 20:55N 40°46' W 074°01'1 1.5
2018-Jun-15 20:29N 40°45' W 074°01'1 1.2
2018-Jun-15 19:56N 40°46' W 074°01'0 0.3
2018-Jun-15 19:31N 40°46' W 074°01'0 0.8
2018-Jun-15 19:00N 40°45' W 074°01'1 1.1
2018-Jun-15 18:25N 40°46' W 074°00'1 0.2
2018-Jun-15 14:16N 40°46' W 074°00'2 5.2
2018-Jun-15 13:58N 40°45' W 074°01'1 1.5
2018-Jun-15 13:26N 40°46' W 074°00'1 1.8
2018-Jun-15 13:00N 40°45' W 074°01'1 1.3
2018-Jun-15 12:26N 40°46' W 074°01'1 1.7
2018-Jun-15 12:00N 40°45' W 074°01'1 1.6
2018-Jun-15 11:27N 40°46' W 074°00'1 1.7
2018-Jun-15 10:57N 40°45' W 074°01'1 1.2
2018-Jun-15 10:25N 40°45' W 074°01'1 1.4
2018-Jun-15 09:59N 40°45' W 074°01'1 0.1
2018-Jun-15 00:20N 40°46' W 074°01'0 0.8
2018-Jun-15 00:00N 40°46' W 074°01'1 2.2
2018-Jun-14 23:30N 40°45' W 074°01'1 0.9
2018-Jun-14 22:54N 40°46' W 074°01'1 1.3
2018-Jun-14 22:30N 40°45' W 074°01'1 1.8
2018-Jun-14 21:58N 40°46' W 074°00'1 1.8
2018-Jun-14 21:30N 40°45' W 074°01'1 0.9
2018-Jun-14 20:55N 40°46' W 074°01'1 1.6
2018-Jun-14 20:31N 40°45' W 074°01'1 1.0
2018-Jun-14 19:51N 40°46' W 074°01'0 0.3
2018-Jun-14 19:29N 40°45' W 074°01'1 1.2
2018-Jun-14 19:00N 40°45' W 074°01'1 1.6
2018-Jun-14 18:29N 40°46' W 074°00'1 0.2
2018-Jun-14 14:19N 40°46' W 074°00'2 4.8
2018-Jun-14 14:00N 40°45' W 074°01'1 1.7
2018-Jun-14 13:27N 40°46' W 074°00'1 1.6
2018-Jun-14 12:57N 40°45' W 074°01'1 1.7
2018-Jun-14 12:29N 40°46' W 074°00'1 1.7
2018-Jun-14 11:58N 40°45' W 074°01'1 1.6
2018-Jun-14 11:26N 40°46' W 074°00'1 1.6
2018-Jun-14 10:57N 40°45' W 074°01'1 2.0
2018-Jun-14 10:30N 40°46' W 074°00'1 1.8
2018-Jun-14 09:59N 40°45' W 074°01'1 0.4
2018-Jun-14 06:46N 40°46' W 074°01'0 0.0
2018-Jun-14 06:20N 40°46' W 074°01'0 0.0
2018-Jun-14 06:00N 40°46' W 074°01'0 0.0
2018-Jun-14 00:09N 40°46' W 074°01'0 2.8
2018-Jun-14 00:00N 40°46' W 074°01'1 1.8
2018-Jun-13 23:30N 40°45' W 074°01'1 1.5
2018-Jun-13 22:55N 40°46' W 074°00'1 2.0
2018-Jun-13 22:28N 40°45' W 074°01'1 1.7
2018-Jun-13 21:56N 40°46' W 074°00'1 2.0
2018-Jun-13 21:30N 40°45' W 074°01'1 1.0
2018-Jun-13 20:54N 40°46' W 074°01'1 1.2
2018-Jun-13 20:27N 40°45' W 074°01'1 1.3
2018-Jun-13 19:48N 40°46' W 074°00'1 1.7
2018-Jun-13 19:21N 40°45' W 074°01'0 0.4
2018-Jun-13 18:59N 40°45' W 074°01'1 1.4
2018-Jun-13 18:29N 40°46' W 074°00'1 0.2
2018-Jun-13 14:15N 40°46' W 074°00'1 5.9
2018-Jun-13 14:00N 40°45' W 074°01'1 1.6
2018-Jun-13 13:26N 40°46' W 074°00'1 1.6
2018-Jun-13 12:56N 40°45' W 074°01'1 1.6
2018-Jun-13 12:28N 40°46' W 074°00'1 2.0
2018-Jun-13 12:00N 40°45' W 074°01'1 1.7
2018-Jun-13 11:26N 40°46' W 074°00'1 2.0
2018-Jun-13 10:57N 40°45' W 074°01'1 1.7
2018-Jun-13 10:25N 40°46' W 074°00'1 2.1
2018-Jun-13 09:59N 40°45' W 074°01'1 0.2
2018-Jun-13 00:02N 40°46' W 074°00'019.2
2018-Jun-13 00:00N 40°46' W 074°00'0 0.6
2018-Jun-12 23:14N 40°46' W 074°01'0 0.7
2018-Jun-12 22:57N 40°46' W 074°00'1 1.9
2018-Jun-12 22:28N 40°45' W 074°01'1 1.3
2018-Jun-12 21:55N 40°46' W 074°01'1 1.4
2018-Jun-12 21:29N 40°45' W 074°01'1 1.3
2018-Jun-12 20:56N 40°46' W 074°00'1 1.5
2018-Jun-12 20:26N 40°45' W 074°01'1 1.4
2018-Jun-12 19:51N 40°46' W 074°00'1 1.5
2018-Jun-12 19:18N 40°46' W 074°01'0 1.1
2018-Jun-12 19:00N 40°45' W 074°01'1 1.2
2018-Jun-12 18:24N 40°46' W 074°00'1 0.2
2018-Jun-12 14:16N 40°47' W 074°00'2 4.6
2018-Jun-12 13:57N 40°45' W 074°01'1 2.1
2018-Jun-12 13:30N 40°46' W 074°00'1 1.9
2018-Jun-12 13:00N 40°45' W 074°01'1 1.2
2018-Jun-12 12:28N 40°46' W 074°01'1 1.4
2018-Jun-12 11:59N 40°45' W 074°01'1 1.9
2018-Jun-12 11:31N 40°46' W 074°00'1 1.6
2018-Jun-12 10:57N 40°45' W 074°01'0 0.6
2018-Jun-12 10:15N 40°45' W 074°01'0 1.6
2018-Jun-12 09:59N 40°45' W 074°01'1 0.1
2018-Jun-12 00:08N 40°46' W 074°01'0 1.5
2018-Jun-12 00:00N 40°46' W 074°01'1 1.9
2018-Jun-11 23:28N 40°45' W 074°01'0 0.2
2018-Jun-11 22:53N 40°45' W 074°01'1 1.3
2018-Jun-11 22:20N 40°46' W 074°00'0 0.8
2018-Jun-11 21:55N 40°46' W 074°01'0 0.4
2018-Jun-11 21:04N 40°45' W 074°01'0 0.4
2018-Jun-11 20:52N 40°45' W 074°01'0 0.1
2018-Jun-11 20:25N 40°45' W 074°01'1 1.7
2018-Jun-11 20:00N 40°46' W 074°00'1 1.1
2018-Jun-11 19:27N 40°45' W 074°01'0 0.2
2018-Jun-11 18:54N 40°45' W 074°01'0 1.0
2018-Jun-11 18:24N 40°46' W 074°01'0 0.0
2018-Jun-11 14:07N 40°46' W 074°01'1 4.4
2018-Jun-11 13:57N 40°45' W 074°01'0 0.6
2018-Jun-11 13:23N 40°45' W 074°01'0 0.8
2018-Jun-11 12:57N 40°45' W 074°01'1 1.0
2018-Jun-11 12:26N 40°45' W 074°01'0 0.4
2018-Jun-11 11:57N 40°45' W 074°01'0 0.1
2018-Jun-11 11:24N 40°45' W 074°01'0 0.6
2018-Jun-11 10:59N 40°45' W 074°01'1 1.6
2018-Jun-11 10:26N 40°46' W 074°00'1 1.9
2018-Jun-11 09:58N 40°45' W 074°01'1 0.1
2018-Jun-10 23:26N 40°46' W 074°01'511.7
2018-Jun-10 23:00N 40°41' W 074°01'0 0.1
2018-Jun-10 22:30N 40°41' W 074°01'0 0.0
2018-Jun-10 22:00N 40°41' W 074°01'1 1.4
2018-Jun-10 21:30N 40°42' W 074°00'1 1.3
2018-Jun-10 21:00N 40°41' W 074°01'1 1.3
2018-Jun-10 20:30N 40°42' W 074°00'1 1.3
2018-Jun-10 20:00N 40°41' W 074°01'1 1.3
2018-Jun-10 19:30N 40°42' W 074°00'1 1.3
2018-Jun-10 19:00N 40°41' W 074°01'1 1.3
2018-Jun-10 18:30N 40°42' W 074°00'1 1.4
2018-Jun-10 18:00N 40°41' W 074°01'1 1.4
2018-Jun-10 17:30N 40°42' W 074°00'1 1.4
2018-Jun-10 17:00N 40°41' W 074°01'1 1.4
2018-Jun-10 16:30N 40°42' W 074°00'1 1.4
2018-Jun-10 16:00N 40°41' W 074°01'1 1.4
2018-Jun-10 15:30N 40°42' W 074°00'0 0.0
2018-Jun-10 15:00N 40°42' W 074°00'1 1.4
2018-Jun-10 14:30N 40°41' W 074°01'5 0.3
2018-Jun-09 23:33N 40°46' W 074°00'0 4.3
2018-Jun-09 23:30N 40°46' W 074°01'510.0
2018-Jun-09 23:00N 40°41' W 074°01'0 0.0
2018-Jun-09 22:30N 40°41' W 074°01'0 0.0
2018-Jun-09 22:00N 40°41' W 074°01'1 1.4
2018-Jun-09 21:30N 40°42' W 074°00'1 1.4
2018-Jun-09 20:59N 40°41' W 074°01'1 1.5
2018-Jun-09 20:30N 40°42' W 074°00'1 1.4
2018-Jun-09 20:00N 40°41' W 074°01'1 1.4
2018-Jun-09 19:31N 40°42' W 074°00'1 1.4
2018-Jun-09 19:00N 40°41' W 074°01'1 1.4
2018-Jun-09 18:30N 40°42' W 074°00'1 1.4
2018-Jun-09 18:00N 40°41' W 074°01'1 1.3
2018-Jun-09 17:30N 40°42' W 074°00'1 1.4
2018-Jun-09 17:00N 40°41' W 074°01'1 1.4
2018-Jun-09 16:30N 40°42' W 074°00'1 1.4
2018-Jun-09 16:00N 40°41' W 074°01'1 0.7
2018-Jun-09 15:00N 40°42' W 074°00'0 0.1
2018-Jun-09 14:30N 40°42' W 074°00'5 6.9
2018-Jun-09 13:48N 40°46' W 074°00'0 0.0
2018-Jun-09 03:40N 40°46' W 074°01'1 5.5
2018-Jun-09 03:30N 40°45' W 074°01'4 7.6
2018-Jun-09 03:00N 40°42' W 074°01'0 1.0
2018-Jun-09 02:30N 40°42' W 074°01'0 0.0
2018-Jun-09 01:41N 40°42' W 074°01'0 2.6
2018-Jun-09 01:30N 40°42' W 074°01'0 0.5
2018-Jun-09 00:37N 40°42' W 074°01'0 4.5
2018-Jun-09 00:30N 40°42' W 074°01'  
Track history (hours):
 
Tides and Currents Weather Stations Pressure Air Temp Water Temp Dewpoint Dewpoint Depression Visibility Wind Speed Wind Dir Waves Ship Positions

Port Imperial Manhattan

Owner: PORT IMPERIAL FERRY CORP, WEEHAWKEN, NJ. More information available from US FCC via Universal Licensing System and Coast Guard Vessel Documentation Center.

Last reported at 2018-Jun-19 00:04 UTC. Time now 2018-Jun-19 08:28 UTC.
Position N 40°46' W 074°00'.

Length 30 m; draft 2 m.

Type: Passenger vessel. MMSI: 366990540.

Date/timePositionNaut miles runAvg speedWind from/ knotsBaromVisibWave heightAir tempDewpointWater temp
2018-Jun-19 00:04N 40°46' W 074°00'1 7.9
2018-Jun-18 23:59N 40°46' W 074°00'1 1.9
2018-Jun-18 23:30N 40°45' W 074°01'1 0.9
2018-Jun-18 22:54N 40°45' W 074°01'1 1.4
2018-Jun-18 22:30N 40°45' W 074°01'1 1.2
2018-Jun-18 21:55N 40°46' W 074°01'1 1.2
2018-Jun-18 21:28N 40°45' W 074°01'0 0.7
2018-Jun-18 20:53N 40°45' W 074°01'1 1.4
2018-Jun-18 20:30N 40°45' W 074°01'0 0.7
2018-Jun-18 19:47N 40°45' W 074°01'0 0.8
2018-Jun-18 19:28N 40°46' W 074°01'0 1.0
2018-Jun-18 19:00N 40°45' W 074°01'1 1.0
2018-Jun-18 18:21N 40°46' W 074°00'1 0.2
2018-Jun-18 14:16N 40°46' W 074°00'2 5.9
2018-Jun-18 14:00N 40°45' W 074°01'0 0.5
2018-Jun-18 13:24N 40°45' W 074°01'0 0.7
2018-Jun-18 13:00N 40°45' W 074°01'1 1.6
2018-Jun-18 12:29N 40°46' W 074°01'1 1.5
2018-Jun-18 11:58N 40°45' W 074°01'0 0.8
2018-Jun-18 11:25N 40°45' W 074°01'0 1.1
2018-Jun-18 11:01N 40°45' W 074°01'1 1.1
2018-Jun-18 10:25N 40°46' W 074°01'1 1.6
2018-Jun-18 10:00N 40°45' W 074°01'1 0.1
2018-Jun-17 23:35N 40°46' W 074°00'111.5
2018-Jun-17 23:30N 40°46' W 074°01'4 8.9
2018-Jun-17 23:00N 40°41' W 074°01'0 0.0
2018-Jun-17 22:30N 40°41' W 074°01'0 0.0
2018-Jun-17 22:01N 40°41' W 074°01'0 0.0
2018-Jun-17 21:31N 40°41' W 074°01'1 1.4
2018-Jun-17 21:00N 40°42' W 074°00'1 1.3
2018-Jun-17 20:27N 40°41' W 074°01'1 1.6
2018-Jun-17 20:00N 40°42' W 074°00'1 1.5
2018-Jun-17 19:30N 40°41' W 074°01'1 1.5
2018-Jun-17 19:00N 40°42' W 074°00'1 1.4
2018-Jun-17 18:30N 40°41' W 074°01'1 1.4
2018-Jun-17 18:00N 40°42' W 074°00'1 1.4
2018-Jun-17 17:30N 40°41' W 074°01'1 1.5
2018-Jun-17 17:00N 40°42' W 074°00'1 1.3
2018-Jun-17 16:30N 40°41' W 074°01'1 1.3
2018-Jun-17 16:00N 40°42' W 074°00'1 1.4
2018-Jun-17 15:30N 40°41' W 074°01'1 1.5
2018-Jun-17 15:00N 40°42' W 074°00'1 1.3
2018-Jun-17 14:30N 40°42' W 074°01'4 8.9
2018-Jun-17 14:00N 40°46' W 074°00'0 0.7
2018-Jun-17 13:30N 40°46' W 074°01'0 0.0
2018-Jun-16 23:33N 40°46' W 074°00'115.0
2018-Jun-16 23:30N 40°46' W 074°01'5 9.2
2018-Jun-16 23:00N 40°41' W 074°01'0 0.1
2018-Jun-16 22:30N 40°41' W 074°01'0 0.1
2018-Jun-16 22:00N 40°41' W 074°01'0 0.1
2018-Jun-16 21:30N 40°41' W 074°01'1 1.4
2018-Jun-16 21:00N 40°42' W 074°00'1 1.4
2018-Jun-16 20:30N 40°41' W 074°01'1 1.4
2018-Jun-16 20:00N 40°42' W 074°00'1 1.5
2018-Jun-16 19:30N 40°41' W 074°01'1 1.4
2018-Jun-16 19:00N 40°42' W 074°00'1 1.4
2018-Jun-16 18:30N 40°41' W 074°01'1 1.4
2018-Jun-16 18:00N 40°42' W 074°00'1 1.3
2018-Jun-16 17:30N 40°41' W 074°01'1 1.4
2018-Jun-16 17:00N 40°42' W 074°00'1 1.4
2018-Jun-16 16:30N 40°41' W 074°01'1 1.4
2018-Jun-16 16:00N 40°42' W 074°00'1 1.3
2018-Jun-16 15:30N 40°41' W 074°01'1 1.3
2018-Jun-16 15:00N 40°42' W 074°00'1 1.5
2018-Jun-16 14:31N 40°41' W 074°01'2 3.1
2018-Jun-16 14:00N 40°43' W 074°01'4 0.3
2018-Jun-16 00:00N 40°46' W 074°00'1 2.5
2018-Jun-15 23:27N 40°45' W 074°01'1 1.3
2018-Jun-15 22:56N 40°46' W 074°01'1 1.6
2018-Jun-15 22:28N 40°45' W 074°01'1 1.7
2018-Jun-15 21:56N 40°46' W 074°00'1 1.8
2018-Jun-15 21:29N 40°45' W 074°01'1 1.1
2018-Jun-15 20:55N 40°46' W 074°01'1 1.5
2018-Jun-15 20:29N 40°45' W 074°01'1 1.2
2018-Jun-15 19:56N 40°46' W 074°01'0 0.3
2018-Jun-15 19:31N 40°46' W 074°01'0 0.8
2018-Jun-15 19:00N 40°45' W 074°01'1 1.1
2018-Jun-15 18:25N 40°46' W 074°00'1 0.2
2018-Jun-15 14:16N 40°46' W 074°00'2 5.2
2018-Jun-15 13:58N 40°45' W 074°01'1 1.5
2018-Jun-15 13:26N 40°46' W 074°00'1 1.8
2018-Jun-15 13:00N 40°45' W 074°01'1 1.3
2018-Jun-15 12:26N 40°46' W 074°01'1 1.7
2018-Jun-15 12:00N 40°45' W 074°01'1 1.6
2018-Jun-15 11:27N 40°46' W 074°00'1 1.7
2018-Jun-15 10:57N 40°45' W 074°01'1 1.2
2018-Jun-15 10:25N 40°45' W 074°01'1 1.4
2018-Jun-15 09:59N 40°45' W 074°01'1 0.1
2018-Jun-15 00:20N 40°46' W 074°01'0 0.8
2018-Jun-15 00:00N 40°46' W 074°01'1 2.2
2018-Jun-14 23:30N 40°45' W 074°01'1 0.9
2018-Jun-14 22:54N 40°46' W 074°01'1 1.3
2018-Jun-14 22:30N 40°45' W 074°01'1 1.8
2018-Jun-14 21:58N 40°46' W 074°00'1 1.8
2018-Jun-14 21:30N 40°45' W 074°01'1 0.9
2018-Jun-14 20:55N 40°46' W 074°01'1 1.6
2018-Jun-14 20:31N 40°45' W 074°01'1 1.0
2018-Jun-14 19:51N 40°46' W 074°01'0 0.3
2018-Jun-14 19:29N 40°45' W 074°01'1 1.2
2018-Jun-14 19:00N 40°45' W 074°01'1 1.6
2018-Jun-14 18:29N 40°46' W 074°00'1 0.2
2018-Jun-14 14:19N 40°46' W 074°00'2 4.8
2018-Jun-14 14:00N 40°45' W 074°01'1 1.7
2018-Jun-14 13:27N 40°46' W 074°00'1 1.6
2018-Jun-14 12:57N 40°45' W 074°01'1 1.7
2018-Jun-14 12:29N 40°46' W 074°00'1 1.7
2018-Jun-14 11:58N 40°45' W 074°01'1 1.6
2018-Jun-14 11:26N 40°46' W 074°00'1 1.6
2018-Jun-14 10:57N 40°45' W 074°01'1 2.0
2018-Jun-14 10:30N 40°46' W 074°00'1 1.8
2018-Jun-14 09:59N 40°45' W 074°01'1 0.4
2018-Jun-14 06:46N 40°46' W 074°01'0 0.0
2018-Jun-14 06:20N 40°46' W 074°01'0 0.0
2018-Jun-14 06:00N 40°46' W 074°01'0 0.0
2018-Jun-14 00:09N 40°46' W 074°01'0 2.8
2018-Jun-14 00:00N 40°46' W 074°01'1 1.8
2018-Jun-13 23:30N 40°45' W 074°01'1 1.5
2018-Jun-13 22:55N 40°46' W 074°00'1 2.0
2018-Jun-13 22:28N 40°45' W 074°01'1 1.7
2018-Jun-13 21:56N 40°46' W 074°00'1 2.0
2018-Jun-13 21:30N 40°45' W 074°01'1 1.0
2018-Jun-13 20:54N 40°46' W 074°01'1 1.2
2018-Jun-13 20:27N 40°45' W 074°01'1 1.3
2018-Jun-13 19:48N 40°46' W 074°00'1 1.7
2018-Jun-13 19:21N 40°45' W 074°01'0 0.4
2018-Jun-13 18:59N 40°45' W 074°01'1 1.4
2018-Jun-13 18:29N 40°46' W 074°00'1 0.2
2018-Jun-13 14:15N 40°46' W 074°00'1 5.9
2018-Jun-13 14:00N 40°45' W 074°01'1 1.6
2018-Jun-13 13:26N 40°46' W 074°00'1 1.6
2018-Jun-13 12:56N 40°45' W 074°01'1 1.6
2018-Jun-13 12:28N 40°46' W 074°00'1 2.0
2018-Jun-13 12:00N 40°45' W 074°01'1 1.7
2018-Jun-13 11:26N 40°46' W 074°00'1 2.0
2018-Jun-13 10:57N 40°45' W 074°01'1 1.7
2018-Jun-13 10:25N 40°46' W 074°00'1 2.1
2018-Jun-13 09:59N 40°45' W 074°01'1 0.2
2018-Jun-13 00:02N 40°46' W 074°00'019.2
2018-Jun-13 00:00N 40°46' W 074°00'0 0.6
2018-Jun-12 23:14N 40°46' W 074°01'0 0.7
2018-Jun-12 22:57N 40°46' W 074°00'1 1.9
2018-Jun-12 22:28N 40°45' W 074°01'1 1.3
2018-Jun-12 21:55N 40°46' W 074°01'1 1.4
2018-Jun-12 21:29N 40°45' W 074°01'1 1.3
2018-Jun-12 20:56N 40°46' W 074°00'1 1.5
2018-Jun-12 20:26N 40°45' W 074°01'1 1.4
2018-Jun-12 19:51N 40°46' W 074°00'1 1.5
2018-Jun-12 19:18N 40°46' W 074°01'0 1.1
2018-Jun-12 19:00N 40°45' W 074°01'1 1.2
2018-Jun-12 18:24N 40°46' W 074°00'1 0.2
2018-Jun-12 14:16N 40°47' W 074°00'2 4.6
2018-Jun-12 13:57N 40°45' W 074°01'1 2.1
2018-Jun-12 13:30N 40°46' W 074°00'1 1.9
2018-Jun-12 13:00N 40°45' W 074°01'1 1.2
2018-Jun-12 12:28N 40°46' W 074°01'1 1.4
2018-Jun-12 11:59N 40°45' W 074°01'1 1.9
2018-Jun-12 11:31N 40°46' W 074°00'1 1.6
2018-Jun-12 10:57N 40°45' W 074°01'0 0.6
2018-Jun-12 10:15N 40°45' W 074°01'0 1.6
2018-Jun-12 09:59N 40°45' W 074°01'1 0.1
2018-Jun-12 00:08N 40°46' W 074°01'0 1.5
2018-Jun-12 00:00N 40°46' W 074°01'1 1.9
2018-Jun-11 23:28N 40°45' W 074°01'0 0.2
2018-Jun-11 22:53N 40°45' W 074°01'1 1.3
2018-Jun-11 22:20N 40°46' W 074°00'0 0.8
2018-Jun-11 21:55N 40°46' W 074°01'0 0.4
2018-Jun-11 21:04N 40°45' W 074°01'0 0.4
2018-Jun-11 20:52N 40°45' W 074°01'0 0.1
2018-Jun-11 20:25N 40°45' W 074°01'1 1.7
2018-Jun-11 20:00N 40°46' W 074°00'1 1.1
2018-Jun-11 19:27N 40°45' W 074°01'0 0.2
2018-Jun-11 18:54N 40°45' W 074°01'0 1.0
2018-Jun-11 18:24N 40°46' W 074°01'0 0.0
2018-Jun-11 14:07N 40°46' W 074°01'1 4.4
2018-Jun-11 13:57N 40°45' W 074°01'0 0.6
2018-Jun-11 13:23N 40°45' W 074°01'0 0.8
2018-Jun-11 12:57N 40°45' W 074°01'1 1.0
2018-Jun-11 12:26N 40°45' W 074°01'0 0.4
2018-Jun-11 11:57N 40°45' W 074°01'0 0.1
2018-Jun-11 11:24N 40°45' W 074°01'0 0.6
2018-Jun-11 10:59N 40°45' W 074°01'1 1.6
2018-Jun-11 10:26N 40°46' W 074°00'1 1.9
2018-Jun-11 09:58N 40°45' W 074°01'1 0.1
2018-Jun-10 23:26N 40°46' W 074°01'511.7
2018-Jun-10 23:00N 40°41' W 074°01'0 0.1
2018-Jun-10 22:30N 40°41' W 074°01'0 0.0
2018-Jun-10 22:00N 40°41' W 074°01'1 1.4
2018-Jun-10 21:30N 40°42' W 074°00'1 1.3
2018-Jun-10 21:00N 40°41' W 074°01'1 1.3
2018-Jun-10 20:30N 40°42' W 074°00'1 1.3
2018-Jun-10 20:00N 40°41' W 074°01'1 1.3
2018-Jun-10 19:30N 40°42' W 074°00'1 1.3
2018-Jun-10 19:00N 40°41' W 074°01'1 1.3
2018-Jun-10 18:30N 40°42' W 074°00'1 1.4
2018-Jun-10 18:00N 40°41' W 074°01'1 1.4
2018-Jun-10 17:30N 40°42' W 074°00'1 1.4
2018-Jun-10 17:00N 40°41' W 074°01'1 1.4
2018-Jun-10 16:30N 40°42' W 074°00'1 1.4
2018-Jun-10 16:00N 40°41' W 074°01'1 1.4
2018-Jun-10 15:30N 40°42' W 074°00'0 0.0
2018-Jun-10 15:00N 40°42' W 074°00'1 1.4
2018-Jun-10 14:30N 40°41' W 074°01'5 0.3
2018-Jun-09 23:33N 40°46' W 074°00'0 4.3
2018-Jun-09 23:30N 40°46' W 074°01'510.0
2018-Jun-09 23:00N 40°41' W 074°01'0 0.0
2018-Jun-09 22:30N 40°41' W 074°01'0 0.0
2018-Jun-09 22:00N 40°41' W 074°01'1 1.4
2018-Jun-09 21:30N 40°42' W 074°00'1 1.4
2018-Jun-09 20:59N 40°41' W 074°01'1 1.5
2018-Jun-09 20:30N 40°42' W 074°00'1 1.4
2018-Jun-09 20:00N 40°41' W 074°01'1 1.4
2018-Jun-09 19:31N 40°42' W 074°00'1 1.4
2018-Jun-09 19:00N 40°41' W 074°01'1 1.4
2018-Jun-09 18:30N 40°42' W 074°00'1 1.4
2018-Jun-09 18:00N 40°41' W 074°01'1 1.3
2018-Jun-09 17:30N 40°42' W 074°00'1 1.4
2018-Jun-09 17:00N 40°41' W 074°01'1 1.4
2018-Jun-09 16:30N 40°42' W 074°00'1 1.4
2018-Jun-09 16:00N 40°41' W 074°01'1 0.7
2018-Jun-09 15:00N 40°42' W 074°00'0 0.1
2018-Jun-09 14:30N 40°42' W 074°00'5 6.9
2018-Jun-09 13:48N 40°46' W 074°00'0 0.0
2018-Jun-09 03:40N 40°46' W 074°01'1 5.5
2018-Jun-09 03:30N 40°45' W 074°01'4 7.6
2018-Jun-09 03:00N 40°42' W 074°01'0 1.0
2018-Jun-09 02:30N 40°42' W 074°01'0 0.0
2018-Jun-09 01:41N 40°42' W 074°01'0 2.6
2018-Jun-09 01:30N 40°42' W 074°01'0 0.5
2018-Jun-09 00:37N 40°42' W 074°01'0 4.5
2018-Jun-09 00:30N 40°42' W 074°01'  

Dump ship's entire track history